Time;durP1;ratioP1;P1;durP2;ratioP2;P2;SDS_P1;SDS_P2;PMS_P1;PMS_P2;Temp;Humidity;BMP_temperature;BMP_pressure;BME280_temperature;BME280_humidity;BME280_pressure;Samples;Min_cycle;Max_cycle;Signal;HPM_P1;HPM_P2
2023/10/05 00:02:14;;;;;;;34.10;32.40;;;;;;;11.20;100.00;101884.69;4940513;29;20043;-78
2023/10/05 00:04:44;;;;;;;34.55;32.53;;;;;;;10.65;100.00;101885.81;4940282;29;20458;-79
2023/10/05 00:07:17;;;;;;;35.28;33.58;;;;;;;11.17;100.00;101888.53;4941852;28;20491;-80
2023/10/05 00:09:45;;;;;;;35.97;34.08;;;;;;;11.12;100.00;101885.56;4934917;29;20129;-79
2023/10/05 00:12:18;;;;;;;32.63;30.92;;;;;;;11.05;100.00;101878.53;4939492;28;20052;-79
2023/10/05 00:14:48;;;;;;;;;;;;;;;11.20;100.00;101884.69;4945329;28;20061;-79
2023/10/05 00:17:16;;;;;;;34.80;32.90;;;;;;;11.14;100.00;101880.09;4943936;28;19945;-79
2023/10/05 00:19:43;;;;;;;38.15;35.80;;;;;;;10.85;100.00;101876.34;4944433;29;20051;-80
2023/10/05 00:22:11;;;;;;;38.53;36.63;;;;;;;10.68;100.00;101878.34;4943776;28;20054;-79
2023/10/05 00:24:39;;;;;;;32.80;31.00;;;;;;;10.78;100.00;101878.09;4943516;28;20566;-80
2023/10/05 00:27:08;;;;;;;29.13;27.52;;;;;;;10.71;100.00;101880.63;4943198;28;20055;-79
2023/10/05 00:29:41;;;;;;;36.58;34.67;;;;;;;10.55;100.00;101880.75;4946837;28;20945;-80
2023/10/05 00:32:14;;;;;;;40.88;38.88;;;;;;;10.45;100.00;101882.81;4950923;28;20051;-79
2023/10/05 00:34:42;;;;;;;33.78;32.17;;;;;;;10.53;100.00;101885.44;4942205;28;20044;-79
2023/10/05 00:37:11;;;;;;;36.22;34.38;;;;;;;10.53;100.00;101882.78;4947514;28;20062;-78
2023/10/05 00:39:39;;;;;;;33.80;32.10;;;;;;;10.54;100.00;101887.06;4944313;29;20039;-79
2023/10/05 00:42:10;;;;;;;45.00;42.70;;;;;;;10.84;100.00;101887.19;4953766;28;20051;-80
2023/10/05 00:44:42;;;;;;;36.30;34.25;;;;;;;10.77;100.00;101884.38;4947625;28;20052;-79
2023/10/05 00:47:12;;;;;;;35.83;33.50;;;;;;;10.75;100.00;101895.22;4950144;28;20574;-78
2023/10/05 00:49:51;;;;;;;39.75;37.80;;;;;;;10.80;100.00;101893.84;4946044;29;20051;-78
2023/10/05 00:52:23;;;;;;;48.28;46.08;;;;;;;10.94;100.00;101891.22;4949673;29;20514;-79
2023/10/05 00:54:52;;;;;;;42.88;40.88;;;;;;;10.97;100.00;101893.53;4947238;29;20310;-78
2023/10/05 00:57:22;;;;;;;38.40;36.50;;;;;;;11.00;100.00;101887.03;4945284;28;20070;-79
2023/10/05 01:00:26;;;;;;;38.67;36.72;;;;;;;10.90;100.00;101889.94;4942709;28;20444;-78
2023/10/05 01:02:45;;;;;;;48.65;46.53;;;;;;;11.04;100.00;101885.66;4949874;29;20044;-78
2023/10/05 01:05:15;;;;;;;41.60;39.55;;;;;;;10.47;100.00;101891.44;4951396;28;20145;-78
2023/10/05 01:07:56;;;;;;;43.25;41.00;;;;;;;10.12;100.00;101896.25;4949496;29;20070;-78
2023/10/05 01:10:29;;;;;;;45.63;43.42;;;;;;;10.36;100.00;101884.69;4934344;29;20083;-78
2023/10/05 01:13:00;;;;;;;40.33;38.05;;;;;;;10.45;100.00;101888.13;4948775;28;20062;-79
2023/10/05 01:15:33;;;;;;;37.55;35.53;;;;;;;10.40;100.00;101893.97;4940776;28;20131;-78
2023/10/05 01:18:00;;;;;;;34.05;32.35;;;;;;;10.77;100.00;101889.69;4950090;28;20055;-78
2023/10/05 01:20:29;;;;;;;38.08;36.08;;;;;;;10.89;100.00;101888.28;4945067;28;20073;-78
2023/10/05 01:22:57;;;;;;;43.30;41.20;;;;;;;10.90;100.00;101889.13;4946788;29;20451;-78
2023/10/05 01:25:28;;;;;;;37.83;35.92;;;;;;;10.84;100.00;101889.84;4937405;29;20499;-78
2023/10/05 01:27:55;;;;;;;39.13;36.92;;;;;;;10.96;100.00;101894.53;4941776;29;20059;-80
2023/10/05 01:30:23;;;;;;;42.53;40.42;;;;;;;11.04;100.00;101879.50;4941092;28;20062;-79
2023/10/05 01:32:50;;;;;;;45.10;42.80;;;;;;;11.11;100.00;101893.75;4944388;28;20051;-79
2023/10/05 01:35:23;;;;;;;36.85;34.95;;;;;;;11.03;100.00;101885.84;4943956;29;20102;-79
2023/10/05 01:37:52;;;;;;;;;;;;;;;11.10;100.00;101890.25;4945446;28;20047;-79
2023/10/05 01:40:30;;;;;;;41.30;39.30;;;;;;;11.05;100.00;101886.50;4946187;29;19929;-80
2023/10/05 01:42:59;;;;;;;39.20;37.50;;;;;;;11.13;100.00;101892.53;4947429;29;20047;-79
2023/10/05 01:45:29;;;;;;;36.60;34.75;;;;;;;11.19;100.00;101886.50;4945646;28;20138;-79
2023/10/05 01:47:56;;;;;;;43.45;41.45;;;;;;;10.95;100.00;101892.91;4948737;28;20051;-79
2023/10/05 01:50:24;;;;;;;42.95;40.88;;;;;;;10.92;100.00;101892.41;4947554;29;20051;-79
2023/10/05 01:53:01;;;;;;;49.25;47.08;;;;;;;11.05;100.00;101895.28;4942874;28;20047;-77
2023/10/05 01:55:30;;;;;;;49.30;47.00;;;;;;;10.94;100.00;101895.72;4948840;29;20090;-79
2023/10/05 01:57:59;;;;;;;33.88;31.85;;;;;;;10.89;100.00;101898.06;4942466;29;20060;-78
2023/10/05 02:00:26;;;;;;;47.30;45.20;;;;;;;10.70;100.00;101897.56;4948450;28;20436;-77
2023/10/05 02:02:55;;;;;;;45.28;43.28;;;;;;;10.59;100.00;101900.66;4947519;28;20073;-79
2023/10/05 02:05:23;;;;;;;58.28;55.85;;;;;;;10.58;100.00;101898.97;4950093;28;20635;-79
2023/10/05 02:07:50;;;;;;;64.80;61.72;;;;;;;10.64;100.00;101900.94;4945845;28;20507;-79
2023/10/05 02:10:19;;;;;;;58.78;55.88;;;;;;;10.37;100.00;101899.63;4938579;29;20043;-78
2023/10/05 02:12:53;;;;;;;66.78;63.88;;;;;;;10.60;100.00;101907.63;4944564;28;20043;-78
2023/10/05 02:15:28;;;;;;;56.92;54.40;;;;;;;10.47;100.00;101908.19;4945489;29;20059;-78
2023/10/05 02:17:56;;;;;;;53.70;51.30;;;;;;;10.70;100.00;101915.34;4945679;28;20039;-78
2023/10/05 02:20:38;;;;;;;64.97;62.10;;;;;;;10.60;100.00;101912.09;4945105;29;20059;-78
2023/10/05 02:23:24;;;;;;;63.60;60.45;;;;;;;10.74;100.00;101911.31;4942107;29;20054;-78
2023/10/05 02:25:56;;;;;;;58.42;55.85;;;;;;;10.72;100.00;101921.31;4944767;28;20409;-79
2023/10/05 02:28:25;;;;;;;88.22;84.35;;;;;;;10.70;100.00;101920.66;4943562;28;20066;-78
2023/10/05 02:30:59;;;;;;;46.15;43.95;;;;;;;10.89;100.00;101927.31;4941418;29;20055;-79
2023/10/05 02:33:27;;;;;;;79.40;75.68;;;;;;;11.00;100.00;101916.25;4948481;28;20427;-79
2023/10/05 02:36:03;;;;;;;59.40;56.70;;;;;;;11.31;100.00;101910.00;4947217;29;20524;-79
2023/10/05 02:38:32;;;;;;;54.25;51.95;;;;;;;11.58;100.00;101917.34;4947773;29;20055;-78
2023/10/05 02:41:04;;;;;;;57.63;55.13;;;;;;;11.73;100.00;101912.03;4944996;28;20059;-79
2023/10/05 02:43:38;;;;;;;52.88;50.58;;;;;;;11.64;100.00;101913.97;4945753;28;20434;-78
2023/10/05 02:46:11;;;;;;;45.67;43.67;;;;;;;11.64;100.00;101913.97;4943878;29;20432;-78
2023/10/05 02:48:41;;;;;;;41.20;39.08;;;;;;;11.64;100.00;101926.44;4940197;28;20142;-79
2023/10/05 02:51:10;;;;;;;51.40;49.22;;;;;;;11.97;100.00;101912.78;4946891;28;20124;-79
2023/10/05 02:53:41;;;;;;;37.53;35.72;;;;;;;11.81;100.00;101911.94;4944077;28;20043;-77
2023/10/05 02:56:20;;;;;;;46.95;44.75;;;;;;;11.73;100.00;101920.00;4937157;29;20503;-80
2023/10/05 02:58:50;;;;;;;46.28;44.17;;;;;;;11.62;100.00;101912.50;4936629;29;20131;-80
2023/10/05 03:01:18;;;;;;;41.22;39.13;;;;;;;11.22;100.00;101917.22;4939369;28;20055;-79
2023/10/05 03:03:45;;;;;;;42.67;39.75;;;;;;;11.33;100.00;101914.13;4944490;29;20428;-80
2023/10/05 03:06:12;;;;;;;48.60;45.90;;;;;;;11.08;100.00;101923.34;4949087;28;20051;-79
2023/10/05 03:08:42;;;;;;;44.15;42.00;;;;;;;11.05;100.00;101915.75;4944456;28;20491;-79
2023/10/05 03:11:09;;;;;;;54.33;52.03;;;;;;;11.10;100.00;101918.66;4940286;28;20079;-80
2023/10/05 03:13:38;;;;;;;44.35;42.25;;;;;;;10.95;100.00;101922.13;4937926;28;20047;-80
2023/10/05 03:16:10;;;;;;;43.13;41.05;;;;;;;10.82;100.00;101926.38;4940303;29;20051;-79
2023/10/05 03:18:41;;;;;;;43.85;41.63;;;;;;;10.96;100.00;101928.28;4946944;28;20057;-79
2023/10/05 03:21:17;;;;;;;57.60;55.00;;;;;;;10.84;100.00;101919.06;4946434;28;20124;-79
2023/10/05 03:23:45;;;;;;;49.65;47.45;;;;;;;10.82;100.00;101923.72;4940220;28;20427;-79
2023/10/05 03:26:16;;;;;;;47.63;45.42;;;;;;;10.75;100.00;101932.41;4946674;28;20190;-79
2023/10/05 03:28:43;;;;;;;51.50;48.95;;;;;;;10.61;100.00;101933.16;4939190;29;20430;-79
2023/10/05 03:31:14;;;;;;;72.18;68.13;;;;;;;10.69;100.00;101932.31;4953723;28;20046;-79
2023/10/05 03:33:43;;;;;;;55.55;53.20;;;;;;;10.65;100.00;101930.97;4944217;29;20062;-79
2023/10/05 03:36:14;;;;;;;70.78;66.78;;;;;;;10.78;100.00;101931.22;4944727;29;20056;-79
2023/10/05 03:38:42;;;;;;;66.38;61.78;;;;;;;10.78;100.00;101929.41;4944837;29;20059;-80
2023/10/05 03:41:15;;;;;;;54.50;50.50;;;;;;;10.38;100.00;101933.16;4951840;28;20114;-79
2023/10/05 03:43:51;;;;;;;51.22;47.53;;;;;;;10.34;100.00;101931.84;4951104;29;20047;-79
2023/10/05 03:46:19;;;;;;;61.00;56.90;;;;;;;10.43;100.00;101938.75;4945659;29;20047;-79
2023/10/05 03:48:48;;;;;;;54.05;50.03;;;;;;;10.63;100.00;101939.13;4941316;29;20604;-79
2023/10/05 03:51:17;;;;;;;61.40;56.85;;;;;;;10.63;100.00;101935.66;4945546;29;20451;-80
2023/10/05 03:53:48;;;;;;;55.97;51.47;;;;;;;10.50;100.00;101937.06;4948192;28;20434;-80
2023/10/05 03:56:20;;;;;;;56.22;51.67;;;;;;;10.37;100.00;101931.50;4941743;29;20481;-79
2023/10/05 03:58:48;;;;;;;55.33;51.08;;;;;;;10.60;100.00;101942.16;4950699;28;20059;-79
2023/10/05 04:01:17;;;;;;;47.90;44.10;;;;;;;10.37;100.00;101947.41;4952112;28;20161;-79
2023/10/05 04:03:46;;;;;;;40.45;37.20;;;;;;;10.53;100.00;101935.91;4953662;28;20130;-78
2023/10/05 04:06:26;;;;;;;39.85;36.83;;;;;;;10.27;100.00;101945.00;4947906;28;20051;-78
2023/10/05 04:08:57;;;;;;;46.28;42.97;;;;;;;10.11;100.00;101939.75;4948432;29;20043;-80
2023/10/05 04:11:26;;;;;;;52.65;48.80;;;;;;;10.26;100.00;101942.50;4945373;28;20412;-78
2023/10/05 04:13:54;;;;;;;66.35;61.53;;;;;;;10.35;100.00;101952.09;4944564;28;20563;-79
2023/10/05 04:16:28;;;;;;;33.10;30.10;;;;;;;10.43;100.00;101949.38;4943242;29;20050;-78
2023/10/05 04:18:58;;;;;;;49.95;45.90;;;;;;;10.39;100.00;101958.72;4939262;28;20166;-77
2023/10/05 04:21:27;;;;;;;36.67;34.80;;;;;;;10.45;100.00;101955.34;4946022;28;20047;-78
2023/10/05 04:23:57;;;;;;;30.00;28.50;;;;;;;10.34;100.00;101955.75;4951009;28;20073;-79
2023/10/05 04:26:32;;;;;;;32.03;30.20;;;;;;;10.54;100.00;101953.47;4947813;28;20043;-78
2023/10/05 04:29:03;;;;;;;28.70;27.10;;;;;;;10.39;100.00;101964.03;4954235;28;20573;-78
2023/10/05 04:31:31;;;;;;;26.52;25.00;;;;;;;10.13;100.00;101955.47;4954169;28;20107;-77
2023/10/05 04:34:00;;;;;;;23.48;21.27;;;;;;;10.49;100.00;101969.94;4948746;28;20055;-78
2023/10/05 04:36:30;;;;;;;23.58;22.05;;;;;;;10.47;100.00;101968.47;4950920;28;20408;-78
2023/10/05 04:38:57;;;;;;;24.77;22.30;;;;;;;10.45;100.00;101971.28;4953107;28;20508;-78
2023/10/05 04:41:28;;;;;;;23.08;21.58;;;;;;;10.28;100.00;101975.84;4949013;28;20083;-77
2023/10/05 04:43:56;;;;;;;23.17;21.77;;;;;;;10.41;100.00;101977.09;4948636;28;20121;-78
2023/10/05 04:46:23;;;;;;;24.35;22.85;;;;;;;10.52;100.00;101974.06;4953664;28;20050;-77
2023/10/05 04:49:01;;;;;;;24.48;23.27;;;;;;;10.78;100.00;101977.22;4951881;28;20083;-79
2023/10/05 04:51:31;;;;;;;24.30;22.40;;;;;;;10.80;100.00;101986.84;4951854;28;20048;-78
2023/10/05 04:53:59;;;;;;;25.60;24.30;;;;;;;10.85;100.00;101987.16;4958532;28;20055;-78
2023/10/05 04:56:40;;;;;;;25.60;24.20;;;;;;;10.82;100.00;101985.69;4952431;28;20289;-77
2023/10/05 04:59:24;;;;;;;22.80;21.60;;;;;;;10.81;100.00;101989.34;4952564;28;20527;-77
2023/10/05 05:02:00;;;;;;;22.70;21.30;;;;;;;10.69;100.00;101991.56;4955818;28;20077;-80
2023/10/05 05:04:41;;;;;;;25.30;24.00;;;;;;;10.45;100.00;101997.03;4957352;28;20054;-81
2023/10/05 05:07:10;;;;;;;24.10;22.90;;;;;;;10.90;100.00;101984.81;4955359;28;20051;-81
2023/10/05 05:09:39;;;;;;;24.40;23.10;;;;;;;11.14;100.00;101991.78;4960269;28;20039;-81
2023/10/05 05:12:09;;;;;;;27.08;25.60;;;;;;;11.26;100.00;101990.34;4942486;28;20563;-82
2023/10/05 05:14:41;;;;;;;23.40;22.10;;;;;;;11.38;100.00;101990.75;4953679;28;20061;-81
2023/10/05 05:17:10;;;;;;;23.83;22.42;;;;;;;11.23;100.00;101996.03;4953009;28;20070;-81
2023/10/05 05:19:39;;;;;;;23.65;22.15;;;;;;;11.50;100.00;101991.97;4954098;29;20050;-81
2023/10/05 05:22:10;;;;;;;21.08;19.70;;;;;;;11.54;100.00;102000.41;4955436;28;20055;-81
2023/10/05 05:24:38;;;;;;;22.02;20.63;;;;;;;11.65;100.00;102008.78;4953908;28;20122;-81
2023/10/05 05:27:11;;;;;;;21.38;20.17;;;;;;;11.80;100.00;102007.94;4947861;28;20051;-81
2023/10/05 05:29:53;;;;;;;22.77;21.38;;;;;;;11.73;100.00;102012.34;4956226;28;20043;-81
2023/10/05 05:32:22;;;;;;;22.20;20.30;;;;;;;11.79;100.00;102011.63;4944974;28;20047;-82
2023/10/05 05:35:08;;;;;;;20.70;19.40;;;;;;;11.35;100.00;102015.03;4943602;28;20059;-82
2023/10/05 05:37:37;;;;;;;21.45;20.05;;;;;;;11.88;100.00;102011.38;4945851;29;20052;-80
2023/10/05 05:40:12;;;;;;;22.42;20.60;;;;;;;11.94;100.00;102015.16;4947251;28;20047;-80
2023/10/05 05:42:47;;;;;;;21.40;20.10;;;;;;;12.24;100.00;102015.16;4952250;29;20463;-81
2023/10/05 05:45:22;;;;;;;25.88;24.13;;;;;;;12.42;100.00;102006.75;4950572;28;20039;-81
2023/10/05 05:47:49;;;;;;;27.60;26.20;;;;;;;12.43;100.00;102003.06;4956619;28;20051;-79
2023/10/05 05:50:17;;;;;;;24.27;22.77;;;;;;;12.56;100.00;102013.91;4951630;29;20059;-80
2023/10/05 05:52:47;;;;;;;22.33;21.00;;;;;;;12.40;100.00;102009.59;4948588;29;20536;-79
2023/10/05 05:55:15;;;;;;;23.73;22.33;;;;;;;12.56;100.00;102014.72;4945890;28;20430;-80
2023/10/05 05:57:43;;;;;;;22.58;21.27;;;;;;;12.87;100.00;102007.47;4954797;29;20051;-80
2023/10/05 06:00:17;;;;;;;23.75;22.25;;;;;;;13.13;100.00;102006.88;4950167;29;20078;-80
2023/10/05 06:02:45;;;;;;;23.67;21.80;;;;;;;13.21;100.00;102004.91;4947553;28;20495;-81
2023/10/05 06:05:16;;;;;;;24.85;23.15;;;;;;;15.69;100.00;102003.84;4957395;28;20055;-80
2023/10/05 06:07:50;;;;;;;25.40;23.70;;;;;;;18.32;100.00;101997.06;4949844;28;20055;-80
2023/10/05 06:10:17;;;;;;;38.15;24.63;;;;;;;14.70;100.00;102006.44;4948319;28;20051;-80
2023/10/05 06:12:48;;;;;;;26.60;24.90;;;;;;;13.85;100.00;102005.81;4949845;28;20043;-80
2023/10/05 06:15:16;;;;;;;26.00;24.05;;;;;;;14.27;100.00;102004.00;4939784;29;20138;-79
2023/10/05 06:17:44;;;;;;;23.25;21.75;;;;;;;14.14;100.00;102015.44;4936543;29;20052;-79
2023/10/05 06:20:14;;;;;;;25.58;23.98;;;;;;;14.41;100.00;102009.19;4946184;29;20051;-79
2023/10/05 06:22:44;;;;;;;23.25;21.67;;;;;;;14.62;100.00;102010.94;4946226;29;20055;-80
2023/10/05 06:25:15;;;;;;;24.95;23.00;;;;;;;14.77;100.00;102009.97;4950389;28;20055;-80
2023/10/05 06:27:43;;;;;;;23.50;21.80;;;;;;;15.11;100.00;102015.16;4950884;28;20416;-79
2023/10/05 06:30:11;;;;;;;24.98;23.27;;;;;;;15.52;100.00;102022.19;4945053;29;20055;-80
2023/10/05 06:32:38;;;;;;;23.27;21.67;;;;;;;15.72;100.00;102016.81;4942278;28;20067;-79
2023/10/05 06:35:08;;;;;;;23.20;21.80;;;;;;;16.21;100.00;102011.94;4941951;29;20063;-79
2023/10/05 06:37:37;;;;;;;25.42;23.83;;;;;;;16.09;100.00;102014.44;4940575;28;20052;-79
2023/10/05 06:40:09;;;;;;;24.63;23.13;;;;;;;16.27;100.00;102016.47;4943626;28;20568;-79
2023/10/05 06:42:39;;;;;;;25.35;23.83;;;;;;;16.39;100.00;102021.97;4941816;29;20179;-78
2023/10/05 06:45:08;;;;;;;26.73;25.13;;;;;;;16.69;100.00;102020.38;4938414;29;20059;-78
2023/10/05 06:47:37;;;;;;;39.58;35.53;;;;;;;16.78;100.00;102020.16;4940071;29;20499;-79
2023/10/05 06:50:08;;;;;;;25.73;24.23;;;;;;;16.76;100.00;102014.19;4944531;29;20580;-79
2023/10/05 06:52:39;;;;;;;23.75;22.20;;;;;;;17.14;100.00;102016.84;4940561;28;20047;-79
2023/10/05 06:55:07;;;;;;;21.83;20.33;;;;;;;17.57;100.00;102021.44;4941600;29;20543;-79
2023/10/05 06:57:36;;;;;;;23.85;22.13;;;;;;;17.93;100.00;102023.38;4942734;29;20048;-79
2023/10/05 07:00:11;;;;;;;26.55;24.50;;;;;;;18.01;100.00;102020.41;4943394;29;20130;-79
2023/10/05 07:02:41;;;;;;;26.55;24.95;;;;;;;18.43;100.00;102023.22;4946794;28;20051;-79
2023/10/05 07:05:10;;;;;;;26.38;24.58;;;;;;;18.63;100.00;102012.16;4934328;29;20050;-78
2023/10/05 07:07:37;;;;;;;28.20;25.98;;;;;;;18.68;100.00;102015.00;4948214;29;20065;-79
2023/10/05 07:10:06;;;;;;;27.65;25.85;;;;;;;19.18;100.00;102025.50;4945052;28;20442;-79
2023/10/05 07:12:35;;;;;;;24.40;22.90;;;;;;;19.56;100.00;102018.81;4946630;29;20044;-79
2023/10/05 07:15:02;;;;;;;22.80;21.40;;;;;;;19.83;100.00;102021.09;4944047;29;20065;-78
2023/10/05 07:17:31;;;;;;;23.88;22.00;;;;;;;19.83;100.00;102021.91;4947463;28;20043;-79
2023/10/05 07:19:59;;;;;;;23.45;22.05;;;;;;;20.23;100.00;102021.09;4948732;28;20055;-80
2023/10/05 07:22:26;;;;;;;25.23;23.73;;;;;;;20.44;100.00;102014.25;4944538;28;20511;-79
2023/10/05 07:24:53;;;;;;;24.50;23.10;;;;;;;20.67;100.00;102020.66;4947277;29;20047;-79
2023/10/05 07:27:20;;;;;;;23.80;22.40;;;;;;;20.80;100.00;102018.44;4944586;28;20416;-79
2023/10/05 07:29:49;;;;;;;25.95;24.35;;;;;;;21.13;100.00;102029.56;4950721;28;20499;-79
2023/10/05 07:32:16;;;;;;;25.15;23.67;;;;;;;21.21;100.00;102026.41;4941659;28;20051;-79
2023/10/05 07:34:44;;;;;;;25.08;23.58;;;;;;;21.15;100.00;102019.28;4944266;29;20135;-79
2023/10/05 07:37:11;;;;;;;25.55;23.95;;;;;;;21.50;100.00;102028.00;4939272;29;20055;-79
2023/10/05 07:39:40;;;;;;;26.40;24.90;;;;;;;21.85;100.00;102023.38;4942114;28;20519;-78
2023/10/05 07:42:09;;;;;;;26.35;24.85;;;;;;;21.88;100.00;102028.28;4948477;28;20542;-78
2023/10/05 07:44:37;;;;;;;27.23;25.55;;;;;;;22.13;100.00;102028.59;4943054;29;20134;-80
2023/10/05 07:47:05;;;;;;;24.10;22.70;;;;;;;21.93;100.00;102037.25;4931143;29;20107;-79
2023/10/05 07:49:37;;;;;;;26.95;24.85;;;;;;;22.41;100.00;102034.91;4940943;29;20054;-80
2023/10/05 07:52:07;;;;;;;26.23;24.63;;;;;;;22.17;100.00;102039.75;4947642;28;20239;-78
2023/10/05 07:54:35;;;;;;;26.60;25.10;;;;;;;22.27;100.00;102036.34;4944271;28;20087;-79
2023/10/05 07:57:02;;;;;;;27.48;25.88;;;;;;;22.15;100.00;102044.59;4943926;29;20562;-78
2023/10/05 07:59:29;;;;;;;26.55;24.90;;;;;;;22.14;100.00;102043.75;4942749;28;20082;-77
2023/10/05 08:01:56;;;;;;;26.42;24.77;;;;;;;22.44;100.00;102042.53;4942980;29;20059;-77
2023/10/05 08:04:23;;;;;;;23.50;22.10;;;;;;;22.60;100.00;102044.34;4943563;28;20043;-78
2023/10/05 08:06:52;;;;;;;25.48;23.88;;;;;;;23.19;100.00;102035.44;4946746;28;20495;-78
2023/10/05 08:09:20;;;;;;;25.33;23.80;;;;;;;22.99;100.00;102038.78;4940621;28;20058;-78
2023/10/05 08:11:48;;;;;;;27.10;25.50;;;;;;;22.99;100.00;102041.47;4940199;29;20055;-80
2023/10/05 08:14:17;;;;;;;25.95;24.45;;;;;;;23.28;100.00;102036.59;4946395;28;20054;-79
2023/10/05 08:16:44;;;;;;;29.05;27.45;;;;;;;23.28;100.00;102031.16;4946393;28;20054;-79
2023/10/05 08:19:11;;;;;;;28.00;26.27;;;;;;;23.52;100.00;102034.31;4945920;28;20055;-79
2023/10/05 08:21:38;;;;;;;26.23;24.55;;;;;;;23.97;100.00;102034.88;4935270;28;20051;-77
2023/10/05 08:24:06;;;;;;;28.65;26.95;;;;;;;24.02;100.00;102034.06;4946078;29;20574;-79
2023/10/05 08:26:35;;;;;;;27.70;26.00;;;;;;;23.82;100.00;102034.81;4948125;28;20059;-77
2023/10/05 08:29:06;;;;;;;44.83;26.20;;;;;;;23.90;100.00;102034.28;4940481;29;20059;-79
2023/10/05 08:31:33;;;;;;;27.58;25.92;;;;;;;24.25;100.00;102027.41;4948208;29;20051;-78
2023/10/05 08:34:01;;;;;;;24.48;22.77;;;;;;;24.38;100.00;102032.31;4945994;28;20058;-77
2023/10/05 08:36:28;;;;;;;24.35;22.65;;;;;;;24.63;100.00;102018.00;4943227;29;20051;-76
2023/10/05 08:38:55;;;;;;;26.17;24.27;;;;;;;24.89;100.00;102025.09;4944845;29;20048;-77
2023/10/05 08:41:34;;;;;;;24.83;23.02;;;;;;;24.65;100.00;102016.66;4944084;28;20138;-78
2023/10/05 08:44:10;;;;;;;25.27;23.38;;;;;;;24.79;100.00;102016.16;4942121;29;20327;-77
2023/10/05 08:46:42;;;;;;;25.83;23.92;;;;;;;24.60;100.00;102003.09;4934874;29;20134;-78
2023/10/05 08:49:10;;;;;;;25.95;24.15;;;;;;;24.70;100.00;102009.63;4944976;29;20067;-76
2023/10/05 08:51:39;;;;;;;27.92;25.92;;;;;;;24.97;100.00;101996.59;4941785;28;20531;-78
2023/10/05 08:54:09;;;;;;;28.38;26.38;;;;;;;25.34;100.00;102000.94;4948733;29;20423;-78
2023/10/05 08:56:37;;;;;;;27.27;25.38;;;;;;;25.95;100.00;101995.34;4945478;28;20617;-77
2023/10/05 08:59:07;;;;;;;26.77;24.45;;;;;;;25.50;100.00;101996.28;4944967;28;20408;-77
2023/10/05 09:01:35;;;;;;;25.58;23.70;;;;;;;25.70;100.00;101996.22;4945044;29;20052;-77
2023/10/05 09:04:11;;;;;;;26.77;24.90;;;;;;;25.61;100.00;101987.00;4947244;28;20094;-77
2023/10/05 09:06:47;;;;;;;26.17;24.38;;;;;;;25.24;100.00;101990.09;4943299;29;20047;-78
2023/10/05 09:09:15;;;;;;;29.48;27.30;;;;;;;25.34;100.00;101984.63;4940817;29;20059;-78
2023/10/05 09:11:42;;;;;;;27.25;25.42;;;;;;;25.96;100.00;101982.53;4944907;29;20047;-78
2023/10/05 09:14:17;;;;;;;27.60;25.40;;;;;;;26.18;100.00;101984.91;4948411;28;20063;-78
2023/10/05 09:16:47;;;;;;;29.10;26.98;;;;;;;26.57;100.00;101987.69;4947410;29;20562;-78
2023/10/05 09:19:18;;;;;;;28.10;26.10;;;;;;;26.62;87.96;101984.91;4943308;28;20511;-78
2023/10/05 09:21:50;;;;;;;27.55;25.65;;;;;;;26.38;96.52;101986.69;4947760;29;20104;-78
2023/10/05 09:24:21;;;;;;;26.67;24.88;;;;;;;26.54;97.73;101977.34;4941030;29;20051;-78
2023/10/05 09:27:09;;;;;;;25.90;24.10;;;;;;;26.72;100.00;101982.13;4946531;28;20048;-77
2023/10/05 09:29:39;;;;;;;25.52;23.73;;;;;;;26.42;96.58;101982.31;4948817;28;20524;-76
2023/10/05 09:32:08;;;;;;;25.60;23.90;;;;;;;27.62;86.22;101974.44;4947915;29;20922;-77
2023/10/05 09:34:41;;;;;;;25.55;23.85;;;;;;;27.46;89.89;101973.81;4944325;29;20059;-77
2023/10/05 09:37:10;;;;;;;30.75;28.77;;;;;;;26.58;74.11;101961.25;4943108;29;20063;-76
2023/10/05 09:39:42;;;;;;;26.02;24.13;;;;;;;28.02;85.48;101964.16;4941090;29;20059;-77
2023/10/05 09:42:22;;;;;;;38.13;28.70;;;;;;;27.04;91.45;101961.66;4950553;29;20056;-78
2023/10/05 09:44:54;;;;;;;30.08;27.88;;;;;;;27.09;89.13;101958.91;4939104;29;20083;-78
2023/10/05 09:47:25;;;;;;;28.60;26.58;;;;;;;27.94;81.09;101959.38;4941593;28;20443;-78
2023/10/05 09:49:54;;;;;;;31.30;29.40;;;;;;;26.99;82.77;101959.00;4939634;29;20562;-77
2023/10/05 09:52:23;;;;;;;35.08;33.08;;;;;;;26.90;75.88;101949.78;4950708;29;20077;-77
2023/10/05 09:54:51;;;;;;;33.35;30.77;;;;;;;28.01;67.65;101959.81;4942732;28;20071;-77
2023/10/05 09:57:20;;;;;;;31.85;29.95;;;;;;;27.79;63.78;101955.72;4942966;29;20431;-77
2023/10/05 09:59:57;;;;;;;30.25;28.30;;;;;;;28.48;61.40;101947.16;4940746;29;20055;-78
2023/10/05 10:02:32;;;;;;;28.88;27.08;;;;;;;28.71;64.51;101948.13;4942385;29;20431;-76
2023/10/05 10:05:04;;;;;;;31.20;29.30;;;;;;;28.93;71.57;101942.03;4942394;29;20068;-78
2023/10/05 10:07:33;;;;;;;30.40;28.50;;;;;;;30.19;61.78;101930.72;4946296;29;20055;-77
2023/10/05 10:10:00;;;;;;;29.52;27.83;;;;;;;30.40;61.62;101937.38;4938178;29;20208;-78
2023/10/05 10:12:38;;;;;;;26.85;25.05;;;;;;;30.32;51.46;101918.97;4950015;29;20057;-78
2023/10/05 10:15:24;;;;;;;31.88;30.08;;;;;;;29.91;62.05;101914.38;4946354;29;20047;-77
2023/10/05 10:18:03;;;;;;;31.33;29.52;;;;;;;29.62;60.96;101923.78;4942366;28;20051;-77
2023/10/05 10:20:36;;;;;;;30.92;29.05;;;;;;;31.03;55.25;101911.66;4947017;28;20052;-78
2023/10/05 10:23:13;;;;;;;32.08;30.25;;;;;;;30.70;52.38;101918.53;4947547;29;20087;-76
2023/10/05 10:25:40;;;;;;;29.30;27.60;;;;;;;28.19;60.13;101928.97;4945307;29;20063;-77
2023/10/05 10:28:20;;;;;;;34.55;32.55;;;;;;;30.66;53.63;101907.41;4941823;28;20054;-77
2023/10/05 10:31:16;;;;;;;34.03;32.13;;;;;;;29.83;57.19;101894.00;4946618;29;20057;-78
2023/10/05 10:33:43;;;;;;;31.00;29.20;;;;;;;30.12;59.84;101898.28;4946300;28;20056;-77
2023/10/05 10:36:19;;;;;;;34.22;32.20;;;;;;;31.45;50.04;101884.69;4940912;29;20051;-76
2023/10/05 10:38:51;;;;;;;32.50;30.67;;;;;;;31.16;51.48;101884.41;4945387;29;20047;-77
2023/10/05 10:41:20;;;;;;;39.05;37.05;;;;;;;30.51;53.98;101881.19;4940931;28;20530;-79
2023/10/05 10:43:52;;;;;;;32.33;30.52;;;;;;;31.01;53.76;101878.22;4945933;29;20074;-77
2023/10/05 10:46:28;;;;;;;37.80;35.85;;;;;;;31.19;51.65;101872.81;4930672;29;20054;-77
2023/10/05 10:48:57;;;;;;;33.13;31.23;;;;;;;29.70;52.67;101870.22;4946244;28;20054;-76
2023/10/05 10:51:27;;;;;;;33.30;31.48;;;;;;;31.25;48.41;101872.34;4945740;29;20412;-76
2023/10/05 10:53:56;;;;;;;33.00;31.20;;;;;;;32.18;46.16;101867.63;4947484;29;20087;-79
2023/10/05 10:56:41;;;;;;;31.90;30.00;;;;;;;30.99;44.89;101853.06;4945749;29;20145;-81
2023/10/05 10:59:11;;;;;;;30.40;28.70;;;;;;;30.85;51.20;101852.34;4954578;29;20481;-79
2023/10/05 11:01:52;;;;;;;28.92;27.27;;;;;;;30.96;50.89;101845.47;4946711;28;20056;-81
2023/10/05 11:04:25;;;;;;;31.98;30.20;;;;;;;31.16;47.02;101851.50;4951821;29;20420;-77
2023/10/05 11:06:59;;;;;;;28.38;26.77;;;;;;;30.74;47.71;101846.34;4957998;28;20043;-80
2023/10/05 11:09:35;;;;;;;31.75;30.05;;;;;;;30.72;52.40;101836.78;4950212;28;20050;-82
2023/10/05 11:12:11;;;;;;;28.65;26.95;;;;;;;30.82;44.78;101835.75;4954921;28;20079;-81
2023/10/05 11:14:41;;;;;;;37.28;35.38;;;;;;;31.06;45.64;101835.34;4952377;28;20055;-79
2023/10/05 11:17:31;;;;;;;35.78;33.72;;;;;;;32.22;42.13;101830.13;4941271;29;20057;-80
2023/10/05 11:20:11;;;;;;;30.83;29.02;;;;;;;30.12;44.22;101827.06;4945213;29;20047;-77
2023/10/05 11:22:43;;;;;;;35.38;33.38;;;;;;;28.26;57.24;101833.81;4946615;28;20051;-80